createdAt,value
2022-08-22T00:01:19.778Z,94899.31
2022-08-22T00:02:59.712Z,94896.03
2022-08-22T00:03:02.035Z,94902.84
2022-08-22T00:03:03.567Z,94904.16
2022-08-22T00:03:04.985Z,94933.81
2022-08-22T00:03:06.413Z,94895.72
2022-08-22T00:03:08.632Z,94898.00
2022-08-22T00:03:12.734Z,94903.81
2022-08-22T00:05:03.197Z,94899.50
2022-08-22T00:06:54.203Z,94899.63
2022-08-22T00:08:32.394Z,94899.34
2022-08-22T00:10:05.457Z,94895.69
2022-08-22T00:11:43.394Z,94890.44
2022-08-22T00:13:23.190Z,94891.59
2022-08-22T00:15:04.520Z,94898.63
2022-08-22T00:16:53.589Z,94885.34
2022-08-22T00:18:33.616Z,94887.25
2022-08-22T00:20:18.082Z,94887.09
2022-08-22T00:21:51.124Z,94892.22
2022-08-22T00:23:34.229Z,94892.44
2022-08-22T00:25:24.710Z,94896.81
2022-08-22T00:27:04.732Z,94894.56
2022-08-22T00:28:42.737Z,94892.28
2022-08-22T00:30:18.988Z,94894.72
2022-08-22T00:31:57.296Z,94900.56
2022-08-22T00:33:34.734Z,94895.34
2022-08-22T00:35:09.646Z,94891.16
2022-08-22T00:36:47.846Z,94896.69
2022-08-22T00:38:23.433Z,94899.63
2022-08-22T00:40:14.238Z,94897.03
2022-08-22T00:41:46.326Z,94891.34
2022-08-22T00:43:49.456Z,94891.25
2022-08-22T00:45:48.789Z,94904.13
2022-08-22T00:47:31.518Z,94905.47
2022-08-22T00:49:19.019Z,94906.63
2022-08-22T00:51:09.770Z,94902.31
2022-08-22T00:53:10.985Z,94897.38
2022-08-22T00:55:02.400Z,94903.44
2022-08-22T00:56:46.110Z,94898.63
2022-08-22T00:58:21.135Z,94905.06
2022-08-22T01:00:10.807Z,94905.00
2022-08-22T01:01:57.389Z,94895.47
2022-08-22T01:03:34.998Z,94899.50
2022-08-22T01:05:25.829Z,94898.69
2022-08-22T01:06:59.017Z,94894.91
2022-08-22T01:08:53.580Z,94895.91
2022-08-22T01:10:44.673Z,94895.31
2022-08-22T01:12:34.998Z,94895.19
2022-08-22T01:14:07.115Z,94892.78
2022-08-22T01:15:40.476Z,94886.47
2022-08-22T01:17:18.770Z,94890.34
2022-08-22T01:19:09.569Z,94894.84
2022-08-22T01:21:00.033Z,94896.19
2022-08-22T01:22:50.641Z,94894.38
2022-08-22T01:25:09.304Z,94893.13
2022-08-22T01:26:51.301Z,94898.84
2022-08-22T01:28:29.874Z,94906.94
2022-08-22T01:30:03.481Z,94904.59
2022-08-22T01:31:49.913Z,94910.19
2022-08-22T01:33:34.328Z,94891.94
2022-08-22T01:35:07.588Z,94899.16
2022-08-22T01:36:58.438Z,94897.91
2022-08-22T01:38:36.554Z,94888.94
2022-08-22T01:40:27.302Z,94898.00
2022-08-22T01:42:05.476Z,94893.03
2022-08-22T01:43:59.833Z,94900.88
2022-08-22T01:45:39.938Z,94895.94
2022-08-22T01:47:21.192Z,94899.19
2022-08-22T01:49:13.459Z,94907.53
2022-08-22T01:50:48.532Z,94902.75
2022-08-22T01:52:39.662Z,94898.75
2022-08-22T01:54:35.407Z,94898.91
2022-08-22T01:56:09.537Z,94904.31
2022-08-22T01:57:59.300Z,94899.81
2022-08-22T01:59:39.746Z,94896.47
2022-08-22T02:01:25.260Z,94891.19
2022-08-22T02:03:10.199Z,94889.75
2022-08-22T02:05:03.511Z,94885.50
2022-08-22T02:06:38.275Z,94905.44
2022-08-22T02:08:38.251Z,94901.41
2022-08-22T02:10:16.271Z,94888.44
2022-08-22T02:11:52.786Z,94891.91
2022-08-22T02:13:36.766Z,94885.59
2022-08-22T02:15:21.386Z,94892.91
2022-08-22T02:16:57.303Z,94889.47
2022-08-22T02:18:34.322Z,94900.47
2022-08-22T02:20:21.742Z,94896.00
2022-08-22T02:22:07.874Z,94897.47
2022-08-22T02:23:58.167Z,94902.19
2022-08-22T02:25:33.745Z,94899.75
2022-08-22T02:27:12.141Z,94905.25
2022-08-22T02:28:56.759Z,94901.09
2022-08-22T02:30:48.291Z,94899.94
2022-08-22T02:32:27.418Z,94903.28
2022-08-22T02:34:02.429Z,94912.38
2022-08-22T02:35:47.529Z,94905.84
2022-08-22T02:37:40.822Z,94910.09
2022-08-22T02:39:27.536Z,94902.19
2022-08-22T02:41:18.425Z,94907.34
2022-08-22T02:42:59.325Z,94912.50
2022-08-22T02:44:40.300Z,94906.38
2022-08-22T02:46:30.847Z,94920.50
2022-08-22T02:48:27.768Z,94913.88
2022-08-22T02:50:12.674Z,94911.44
2022-08-22T02:51:48.280Z,94917.00
2022-08-22T02:53:39.387Z,94914.72
2022-08-22T02:55:20.524Z,94913.69
2022-08-22T02:57:06.244Z,94916.13
2022-08-22T02:58:50.066Z,94916.47
2022-08-22T03:00:32.695Z,94909.94
2022-08-22T03:02:28.044Z,94913.19
2022-08-22T03:04:18.689Z,94916.41
2022-08-22T03:06:00.525Z,94914.41
2022-08-22T03:07:40.797Z,94917.72
2022-08-22T03:09:15.929Z,94916.91
2022-08-22T03:11:09.364Z,94916.56
2022-08-22T03:13:04.311Z,94909.88
2022-08-22T03:14:43.872Z,94897.53
2022-08-22T03:16:18.936Z,94905.28
2022-08-22T03:17:55.584Z,94903.00
2022-08-22T03:19:44.452Z,94906.78
2022-08-22T03:21:34.980Z,94905.25
2022-08-22T03:23:14.361Z,94908.53
2022-08-22T03:25:01.841Z,94909.91
2022-08-22T03:26:36.861Z,94910.28
2022-08-22T03:28:13.652Z,94913.75
2022-08-22T03:29:50.407Z,94913.88
2022-08-22T03:31:24.362Z,94908.91
2022-08-22T03:33:19.426Z,94903.00
2022-08-22T03:35:09.670Z,94905.03
2022-08-22T03:36:46.326Z,94915.63
2022-08-22T03:38:25.882Z,94911.75
2022-08-22T03:40:05.429Z,94908.81
2022-08-22T03:41:40.343Z,94906.47
2022-08-22T03:43:39.390Z,94905.41
2022-08-22T03:45:11.492Z,94897.66
2022-08-22T03:46:53.196Z,94897.78
2022-08-22T03:48:44.997Z,94893.53
2022-08-22T03:50:27.309Z,94896.97
2022-08-22T03:52:22.301Z,94890.91
2022-08-22T03:54:05.999Z,94892.31
2022-08-22T03:56:03.736Z,94891.03
2022-08-22T03:57:46.429Z,94896.97
2022-08-22T03:59:45.958Z,94897.19
2022-08-22T04:01:23.407Z,94902.56
2022-08-22T04:03:13.857Z,94901.72
2022-08-22T04:05:02.233Z,94903.03
2022-08-22T04:06:49.831Z,94906.09
2022-08-22T04:08:38.154Z,94906.53
2022-08-22T04:10:34.492Z,94901.28
2022-08-22T04:12:21.805Z,94898.41
2022-08-22T04:13:53.954Z,94903.03
2022-08-22T04:15:41.778Z,94908.31
2022-08-22T04:17:32.752Z,94906.09
2022-08-22T04:19:16.395Z,94909.53
2022-08-22T04:21:07.214Z,94904.06
2022-08-22T04:22:42.262Z,94903.69
2022-08-22T04:24:27.338Z,94909.59
2022-08-22T04:26:12.314Z,94909.81
2022-08-22T04:28:00.229Z,94908.59
2022-08-22T04:29:36.324Z,94913.47
2022-08-22T04:31:12.578Z,94910.25
2022-08-22T04:32:48.050Z,94919.53
2022-08-22T04:34:38.539Z,94915.91
2022-08-22T04:36:20.289Z,94912.38
2022-08-22T04:37:59.097Z,94910.56
2022-08-22T04:39:36.806Z,94911.22
2022-08-22T04:41:24.842Z,94914.28
2022-08-22T04:43:03.633Z,94912.66
2022-08-22T04:44:35.775Z,94920.56
2022-08-22T04:46:22.749Z,94922.75
2022-08-22T04:48:10.232Z,94919.50
2022-08-22T04:49:47.882Z,94920.28
2022-08-22T04:51:28.849Z,94923.13
2022-08-22T04:53:03.313Z,94927.56
2022-08-22T04:54:44.218Z,94923.91
2022-08-22T04:56:25.417Z,94925.81
2022-08-22T04:58:11.408Z,94924.81
2022-08-22T04:59:44.538Z,94922.28
2022-08-22T05:01:21.556Z,94928.78
2022-08-22T05:02:57.229Z,94928.06
2022-08-22T05:04:35.092Z,94934.13
2022-08-22T05:06:08.571Z,94938.75
2022-08-22T05:07:44.515Z,94940.91
2022-08-22T05:09:19.556Z,94939.25
2022-08-22T05:10:52.455Z,94946.47
2022-08-22T05:12:45.661Z,94945.59
2022-08-22T05:14:25.594Z,94949.19
2022-08-22T05:16:00.387Z,94952.44
2022-08-22T05:17:33.032Z,94943.41
2022-08-22T05:19:17.021Z,94959.94
2022-08-22T05:20:53.812Z,94949.56
2022-08-22T05:22:29.310Z,94948.88
2022-08-22T05:24:04.863Z,94948.41
2022-08-22T05:25:38.383Z,94950.19
2022-08-22T05:27:13.233Z,94955.94
2022-08-22T05:28:56.735Z,94959.16
2022-08-22T05:30:31.781Z,94958.06
2022-08-22T05:32:06.097Z,94960.28
2022-08-22T05:33:42.613Z,94959.66
2022-08-22T05:35:17.313Z,94956.59
2022-08-22T05:36:56.020Z,94964.34
2022-08-22T05:38:32.584Z,94975.66
2022-08-22T05:40:05.252Z,94968.03
2022-08-22T05:41:38.401Z,94970.00
2022-08-22T05:43:12.826Z,94963.94
2022-08-22T06:15:23.458Z,94976.94
2022-08-22T06:17:04.144Z,94978.97
2022-08-22T06:18:38.939Z,94977.84
2022-08-22T06:20:16.534Z,94973.41
2022-08-22T06:21:50.463Z,94971.91
2022-08-22T06:23:30.093Z,94974.97
2022-08-22T06:25:13.146Z,94974.78
2022-08-22T06:26:48.934Z,94977.09
2022-08-22T06:28:23.748Z,94980.69
2022-08-22T06:29:58.332Z,94980.69
2022-08-22T06:31:36.199Z,94975.88
2022-08-22T06:33:12.307Z,94979.63
2022-08-22T06:34:46.035Z,94982.88
2022-08-22T06:36:33.026Z,94981.38
2022-08-22T06:38:05.180Z,94985.97
2022-08-22T06:39:38.880Z,94984.69
2022-08-22T06:41:12.079Z,94975.97
2022-08-22T06:42:52.933Z,94980.69
2022-08-22T06:44:28.078Z,94976.31
2022-08-22T06:46:01.272Z,94975.19
2022-08-22T06:47:37.223Z,94977.00
2022-08-22T06:49:12.407Z,94985.25
2022-08-22T06:50:46.172Z,94976.88
2022-08-22T06:52:21.777Z,94985.75
2022-08-22T06:53:56.499Z,94987.09
2022-08-22T06:55:30.886Z,94987.91
2022-08-22T06:57:04.019Z,94975.34
2022-08-22T06:58:58.248Z,94977.78
2022-08-22T07:00:32.293Z,94977.31
2022-08-22T07:02:05.569Z,94988.94
2022-08-22T07:03:40.632Z,94976.63
2022-08-22T07:05:17.827Z,94981.22
2022-08-22T07:06:51.811Z,94979.63
2022-08-22T07:08:25.355Z,94974.56
2022-08-22T07:09:58.025Z,94975.78
2022-08-22T07:11:31.502Z,94982.25
2022-08-22T07:13:08.565Z,94982.25
2022-08-22T07:14:43.474Z,94979.13
2022-08-22T07:16:15.593Z,94981.88
2022-08-22T07:17:50.098Z,94980.06
2022-08-22T07:19:39.177Z,94988.22
2022-08-22T07:21:11.697Z,94981.53
2022-08-22T07:22:54.237Z,94982.09
2022-08-22T07:24:33.409Z,94990.00
2022-08-22T07:26:06.391Z,94977.44
2022-08-22T07:27:44.445Z,94985.94
2022-08-22T07:29:28.818Z,94982.50
2022-08-22T07:31:05.784Z,94987.88
2022-08-22T07:32:42.371Z,94985.22
2022-08-22T07:34:15.348Z,94982.44
2022-08-22T07:35:53.101Z,94979.31
2022-08-22T07:37:31.501Z,94984.31
2022-08-22T07:39:13.678Z,94983.69
2022-08-22T07:40:46.644Z,94985.88
2022-08-22T07:42:22.810Z,94985.88
2022-08-22T07:44:08.917Z,94984.53
2022-08-22T07:45:49.755Z,94990.00
2022-08-22T07:47:26.345Z,94984.19
2022-08-22T07:49:14.965Z,94983.19
2022-08-22T07:50:57.229Z,94986.50
2022-08-22T07:52:36.505Z,94985.28
2022-08-22T07:54:10.726Z,94979.97
2022-08-22T07:55:49.772Z,94981.25
2022-08-22T07:57:28.126Z,94985.69
2022-08-22T07:59:12.837Z,94970.47
2022-08-22T08:00:46.586Z,94986.31
2022-08-22T08:03:02.828Z,94981.19
2022-08-22T08:04:40.275Z,94980.63
2022-08-22T08:06:13.641Z,94973.13
2022-08-22T08:07:46.594Z,94979.25
2022-08-22T08:09:20.120Z,94971.94
2022-08-22T14:37:34.026Z,94958.28
